Time;durP1;ratioP1;P1;durP2;ratioP2;P2;SDS_P1;SDS_P2;PMS_P1;PMS_P2;Temp;Humidity;BMP_temperature;BMP_pressure;BME280_temperature;BME280_humidity;BME280_pressure;Samples;Min_cycle;Max_cycle;Signal;HPM_P1;HPM_P2
2023/02/10 00:01:43;;;;;;;31.05;19.75;;;3.60;99.90;;;;;;5034725;28;20233;-64
2023/02/10 00:04:12;;;;;;;39.30;23.10;;;3.60;99.90;;;;;;5034217;28;20201;-64
2023/02/10 00:06:40;;;;;;;42.17;22.08;;;3.50;99.90;;;;;;5033694;28;20202;-64
2023/02/10 00:09:08;;;;;;;38.40;23.63;;;3.50;99.90;;;;;;5033975;28;20202;-64
2023/02/10 00:14:19;;;;;;;41.00;23.38;;;3.40;99.90;;;;;;5034117;28;20185;-64
2023/02/10 00:16:50;;;;;;;41.75;23.02;;;3.40;99.90;;;;;;5033493;28;20238;-63
2023/02/10 00:19:17;;;;;;;36.33;22.23;;;3.40;99.90;;;;;;5033823;28;20193;-63
2023/02/10 00:21:44;;;;;;;38.30;23.67;;;3.30;99.90;;;;;;5033628;28;20234;-64
2023/02/10 00:24:11;;;;;;;39.47;23.23;;;3.30;99.90;;;;;;5033502;28;20549;-65
2023/02/10 00:26:37;;;;;;;36.05;22.45;;;3.30;99.90;;;;;;5034982;28;20194;-64
2023/02/10 00:29:05;;;;;;;44.15;22.45;;;3.30;99.90;;;;;;5037170;28;20690;-64
2023/02/10 00:31:31;;;;;;;43.08;23.92;;;3.30;99.90;;;;;;5037127;28;20225;-64
2023/02/10 00:34:00;;;;;;;41.10;24.15;;;3.30;99.90;;;;;;5037419;28;20209;-63
2023/02/10 00:36:26;;;;;;;41.65;23.60;;;3.30;99.90;;;;;;5036904;28;20222;-64
2023/02/10 00:38:53;;;;;;;37.20;21.75;;;3.30;99.90;;;;;;5037363;28;20202;-63
2023/02/10 00:41:22;;;;;;;35.30;21.10;;;3.30;99.90;;;;;;5036838;28;20715;-63
2023/02/10 00:43:48;;;;;;;36.28;24.38;;;3.30;99.90;;;;;;5036713;28;20210;-64
2023/02/10 00:46:17;;;;;;;38.88;24.08;;;3.30;99.90;;;;;;5037034;28;20213;-63
2023/02/10 00:48:45;;;;;;;39.85;22.23;;;3.30;99.90;;;;;;5036930;28;20206;-62
2023/02/10 00:51:14;;;;;;;31.10;19.50;;;3.20;99.90;;;;;;5036842;28;20212;-63
2023/02/10 00:53:40;;;;;;;48.92;24.33;;;3.20;99.90;;;;;;5036831;28;20598;-64
2023/02/10 00:56:08;;;;;;;38.47;24.45;;;3.30;99.90;;;;;;5036814;28;20225;-65
2023/02/10 00:58:35;;;;;;;39.25;22.48;;;3.30;99.90;;;;;;5036892;28;20203;-64
2023/02/10 01:01:01;;;;;;;37.55;23.23;;;3.20;99.90;;;;;;5036692;28;20689;-64
2023/02/10 01:03:28;;;;;;;44.20;24.75;;;3.30;99.90;;;;;;5036490;28;20727;-63
2023/02/10 01:05:55;;;;;;;43.05;22.48;;;3.20;99.90;;;;;;5036624;28;20209;-64
2023/02/10 01:08:23;;;;;;;37.30;22.90;;;3.20;99.90;;;;;;5036563;28;20198;-64
2023/02/10 01:10:50;;;;;;;42.80;23.13;;;3.20;99.90;;;;;;5036675;28;20720;-64
2023/02/10 01:13:17;;;;;;;44.50;22.30;;;3.20;99.90;;;;;;5036463;28;20218;-64
2023/02/10 01:15:45;;;;;;;38.55;22.98;;;3.20;99.90;;;;;;5036656;28;20584;-64
2023/02/10 01:18:12;;;;;;;34.85;21.13;;;3.20;99.90;;;;;;5036491;28;20208;-64
2023/02/10 01:20:40;;;;;;;37.90;23.38;;;3.30;99.90;;;;;;5036413;28;20202;-65
2023/02/10 01:23:08;;;;;;;36.22;22.63;;;3.20;99.90;;;;;;5036259;28;20230;-65
2023/02/10 01:25:37;;;;;;;46.70;23.33;;;3.20;99.90;;;;;;5036221;28;20203;-64
2023/02/10 01:28:05;;;;;;;40.60;23.58;;;3.30;99.90;;;;;;5036425;28;20202;-64
2023/02/10 01:30:31;;;;;;;37.53;22.55;;;3.30;99.90;;;;;;5036089;28;20210;-64
2023/02/10 01:32:58;;;;;;;42.50;22.77;;;3.30;99.90;;;;;;5036557;28;20221;-65
2023/02/10 01:35:25;;;;;;;37.03;21.77;;;3.30;99.90;;;;;;5035833;28;20202;-63
2023/02/10 01:37:52;;;;;;;32.63;20.73;;;3.30;99.90;;;;;;5035233;28;20202;-64
2023/02/10 01:40:19;;;;;;;43.58;25.17;;;3.30;99.90;;;;;;5037497;28;20674;-63
2023/02/10 01:42:47;;;;;;;35.95;21.88;;;3.30;99.90;;;;;;5036278;28;20245;-64
2023/02/10 01:45:19;;;;;;;36.92;21.55;;;3.30;99.90;;;;;;5036514;28;20209;-64
2023/02/10 01:47:47;;;;;;;37.75;22.77;;;3.30;99.90;;;;;;5035596;28;20191;-64
2023/02/10 01:50:15;;;;;;;35.50;20.75;;;3.30;99.90;;;;;;5035747;28;20213;-62
2023/02/10 01:52:44;;;;;;;35.85;21.42;;;3.30;99.90;;;;;;5035889;28;20225;-63
2023/02/10 01:55:13;;;;;;;33.92;19.80;;;3.30;99.90;;;;;;5035275;28;20213;-64
2023/02/10 01:57:44;;;;;;;33.60;22.13;;;3.30;99.90;;;;;;5035471;28;20226;-63
2023/02/10 02:00:14;;;;;;;34.97;22.35;;;3.20;99.90;;;;;;5034305;28;20203;-64
2023/02/10 02:02:44;;;;;;;36.90;22.05;;;3.10;99.90;;;;;;5035883;28;20225;-63
2023/02/10 02:05:30;;;;;;;34.83;23.75;;;3.10;99.90;;;;;;5035482;28;20218;-63
2023/02/10 02:08:00;;;;;;;36.05;22.75;;;3.00;99.90;;;;;;5035405;28;20193;-65
2023/02/10 02:10:53;;;;;;;37.28;22.10;;;2.90;99.90;;;;;;5035436;28;20206;-62
2023/02/10 02:13:26;;;;;;;37.25;23.33;;;3.00;99.90;;;;;;5035394;28;20725;-64
2023/02/10 02:16:03;;;;;;;36.88;22.95;;;3.00;99.90;;;;;;5035606;28;20210;-64
2023/02/10 02:18:37;;;;;;;38.60;23.38;;;3.00;99.90;;;;;;5035160;28;20186;-63
2023/02/10 02:21:26;;;;;;;41.65;23.38;;;3.10;99.90;;;;;;5035382;28;20564;-63
2023/02/10 02:24:22;;;;;;;44.45;23.25;;;3.10;99.90;;;;;;5034954;28;20560;-64
2023/02/10 02:27:02;;;;;;;39.58;22.65;;;3.20;99.90;;;;;;5035092;28;20182;-64
2023/02/10 02:29:44;;;;;;;33.55;20.90;;;3.20;99.90;;;;;;5035063;28;20186;-63
2023/02/10 02:32:18;;;;;;;35.88;21.42;;;3.20;99.90;;;;;;5035405;28;20284;-64
2023/02/10 02:34:50;;;;;;;33.92;22.20;;;3.20;99.90;;;;;;5034928;28;20191;-62
2023/02/10 02:37:20;;;;;;;40.60;24.55;;;3.30;99.90;;;;;;5035063;28;20210;-65
2023/02/10 02:39:50;;;;;;;33.75;22.73;;;3.30;99.90;;;;;;5034995;28;20217;-64
2023/02/10 02:42:21;;;;;;;33.88;21.42;;;3.30;99.90;;;;;;5034760;28;20639;-65
2023/02/10 02:44:52;;;;;;;31.80;21.83;;;3.30;99.90;;;;;;5035153;28;20190;-64
2023/02/10 02:47:36;;;;;;;32.13;20.08;;;3.40;99.90;;;;;;5034952;28;20556;-63
2023/02/10 02:50:14;;;;;;;38.80;20.17;;;3.40;99.90;;;;;;5033689;28;20184;-63
2023/02/10 02:52:50;;;;;;;32.47;20.45;;;3.40;99.90;;;;;;5034687;28;20230;-63
2023/02/10 02:55:25;;;;;;;33.33;21.20;;;3.40;99.90;;;;;;5034467;28;20638;-65
2023/02/10 02:57:57;;;;;;;30.52;20.02;;;3.40;99.90;;;;;;5034413;28;20233;-63
2023/02/10 03:00:28;;;;;;;32.95;19.48;;;3.40;99.90;;;;;;5034664;28;20646;-64
2023/02/10 03:02:57;;;;;;;31.65;18.10;;;3.40;99.90;;;;;;5034837;28;20710;-63
2023/02/10 03:05:28;;;;;;;31.58;18.70;;;3.40;99.90;;;;;;5035038;28;20205;-63
2023/02/10 03:07:55;;;;;;;31.42;18.52;;;3.50;99.90;;;;;;5034637;28;20214;-63
2023/02/10 03:10:22;;;;;;;29.65;18.42;;;3.50;99.90;;;;;;5034676;28;20211;-63
2023/02/10 03:12:50;;;;;;;29.70;18.77;;;3.50;99.90;;;;;;5034968;28;20233;-63
2023/02/10 03:15:17;;;;;;;31.40;17.75;;;3.50;99.90;;;;;;5035024;28;20229;-63
2023/02/10 03:17:44;;;;;;;29.50;16.30;;;3.60;99.90;;;;;;5034608;28;20218;-64
2023/02/10 03:20:13;;;;;;;28.52;18.02;;;3.60;99.90;;;;;;5034942;28;20307;-63
2023/02/10 03:22:39;;;;;;;31.17;19.17;;;3.60;99.90;;;;;;5034128;28;20309;-63
2023/02/10 03:25:07;;;;;;;29.67;18.40;;;3.60;99.90;;;;;;5034462;28;20501;-63
2023/02/10 03:27:33;;;;;;;28.10;16.80;;;3.60;99.90;;;;;;5034800;28;20277;-62
2023/02/10 03:30:00;;;;;;;28.00;17.55;;;3.60;99.90;;;;;;5034517;28;20202;-63
2023/02/10 03:32:27;;;;;;;35.20;19.00;;;3.60;99.90;;;;;;5034222;28;20218;-64
2023/02/10 03:34:54;;;;;;;28.70;18.00;;;3.60;99.90;;;;;;5034105;28;20693;-63
2023/02/10 03:37:22;;;;;;;30.08;18.13;;;3.60;99.90;;;;;;5033900;28;20229;-63
2023/02/10 03:39:49;;;;;;;27.35;16.90;;;3.60;99.90;;;;;;5034200;28;20209;-63
2023/02/10 03:42:16;;;;;;;25.85;17.80;;;3.60;99.90;;;;;;5033972;28;20219;-63
2023/02/10 03:44:42;;;;;;;29.90;18.42;;;3.60;99.90;;;;;;5034357;28;20556;-63
2023/02/10 03:47:09;;;;;;;28.58;16.77;;;3.70;99.90;;;;;;5034172;28;20666;-63
2023/02/10 03:49:36;;;;;;;27.80;16.95;;;3.60;99.90;;;;;;5033940;28;20303;-63
2023/02/10 03:52:03;;;;;;;30.58;17.23;;;3.60;99.90;;;;;;5033958;28;20228;-63
2023/02/10 03:54:31;;;;;;;26.73;16.50;;;3.70;99.90;;;;;;5034182;28;20198;-63
2023/02/10 03:56:58;;;;;;;27.95;17.25;;;3.70;99.90;;;;;;5034285;28;20219;-63
2023/02/10 03:59:25;;;;;;;24.15;16.10;;;3.70;99.90;;;;;;5033471;28;20198;-63
2023/02/10 04:01:52;;;;;;;22.73;15.02;;;3.70;99.90;;;;;;5032754;28;20739;-62
2023/02/10 04:04:18;;;;;;;25.63;16.02;;;3.70;99.90;;;;;;5033782;28;20202;-63
2023/02/10 04:06:45;;;;;;;30.00;15.52;;;3.70;99.90;;;;;;5034612;28;20209;-62
2023/02/10 04:11:09;;;;;;;22.63;14.83;;;3.80;99.90;;;;;;5107201;27;1409320;-62
2023/02/10 04:13:35;;;;;;;26.60;15.43;;;3.80;99.90;;;;;;5112055;28;20437;-63
2023/02/10 04:16:04;;;;;;;24.60;14.45;;;3.80;99.90;;;;;;5111934;28;20200;-63
2023/02/10 04:18:31;;;;;;;26.02;15.30;;;3.80;99.90;;;;;;5112458;28;20226;-62
2023/02/10 04:20:58;;;;;;;25.75;16.42;;;3.80;99.90;;;;;;5111196;28;20206;-62
2023/02/10 04:25:56;;;;;;;26.00;16.90;;;3.90;99.90;;;;;;5093540;22;20244;-63
2023/02/10 04:28:25;;;;;;;33.85;17.52;;;3.90;99.90;;;;;;5070524;28;20211;-63
2023/02/10 04:30:52;;;;;;;23.92;15.52;;;3.90;99.90;;;;;;5070605;28;20244;-63
2023/02/10 04:33:19;;;;;;;28.67;16.33;;;3.90;99.90;;;;;;5070187;28;20204;-62
2023/02/10 04:35:48;;;;;;;24.67;15.20;;;3.90;99.90;;;;;;5069958;28;20734;-62
2023/02/10 04:38:15;;;;;;;29.63;16.90;;;3.90;99.90;;;;;;5070313;28;20291;-63
2023/02/10 04:40:42;;;;;;;22.38;15.45;;;3.90;99.90;;;;;;5070748;28;20224;-63
2023/02/10 04:43:09;;;;;;;26.10;16.70;;;3.90;99.90;;;;;;5071391;28;20205;-63
2023/02/10 04:45:38;;;;;;;25.90;15.63;;;3.90;99.90;;;;;;5071880;28;20307;-62
2023/02/10 04:48:05;;;;;;;30.77;15.75;;;3.90;99.90;;;;;;5070523;28;20207;-63
2023/02/10 04:50:32;;;;;;;31.92;18.60;;;3.90;99.90;;;;;;5069907;28;20224;-63
2023/02/10 04:52:58;;;;;;;26.27;17.05;;;3.90;99.90;;;;;;5070701;28;20208;-63
2023/02/10 04:55:25;;;;;;;24.95;17.20;;;4.00;99.90;;;;;;5069865;28;20232;-63
2023/02/10 04:57:52;;;;;;;30.90;16.30;;;3.90;99.90;;;;;;5069865;28;20692;-63
2023/02/10 05:00:20;;;;;;;34.70;16.75;;;3.90;99.90;;;;;;5069909;28;20193;-63
2023/02/10 05:02:48;;;;;;;29.08;18.27;;;3.90;99.90;;;;;;5076036;28;20211;-63
2023/02/10 05:05:14;;;;;;;23.92;16.30;;;3.90;99.90;;;;;;5073315;28;20225;-63
2023/02/10 05:07:41;;;;;;;31.23;17.42;;;3.90;99.90;;;;;;5069749;28;20213;-62
2023/02/10 05:10:09;;;;;;;25.00;16.80;;;3.90;99.90;;;;;;5078881;28;20243;-64
2023/02/10 05:12:35;;;;;;;38.78;18.48;;;3.90;99.90;;;;;;5081232;28;20204;-63
2023/02/10 05:15:03;;;;;;;29.45;18.17;;;3.80;99.90;;;;;;5082418;28;20235;-62
2023/02/10 05:17:29;;;;;;;25.83;16.15;;;3.80;99.90;;;;;;5083170;28;20212;-63
2023/02/10 05:19:58;;;;;;;27.90;18.77;;;3.80;99.90;;;;;;5081831;28;20197;-64
2023/02/10 05:22:29;;;;;;;30.63;18.65;;;3.80;99.90;;;;;;5067040;28;20272;-63
2023/02/10 05:24:56;;;;;;;30.15;19.45;;;3.80;99.90;;;;;;5061541;28;20296;-63
2023/02/10 05:27:23;;;;;;;30.98;18.98;;;3.80;99.90;;;;;;5067643;28;20201;-63
2023/02/10 05:29:50;;;;;;;32.63;19.42;;;3.70;99.90;;;;;;5059133;28;20712;-63
2023/02/10 05:32:16;;;;;;;29.55;18.33;;;3.70;99.90;;;;;;5056501;28;20687;-63
2023/02/10 05:34:43;;;;;;;32.67;19.10;;;3.60;99.90;;;;;;5054260;28;20743;-63
2023/02/10 05:37:11;;;;;;;30.73;18.90;;;3.50;99.90;;;;;;5056305;28;20219;-63
2023/02/10 05:39:39;;;;;;;37.25;21.15;;;3.50;99.90;;;;;;5057340;28;20205;-63
2023/02/10 05:42:06;;;;;;;31.95;20.20;;;3.40;99.90;;;;;;5057770;28;20198;-63
2023/02/10 05:44:33;;;;;;;34.55;20.13;;;3.40;99.90;;;;;;5057506;28;20222;-63
2023/02/10 05:47:00;;;;;;;36.28;20.15;;;3.40;99.90;;;;;;5057050;28;20209;-63
2023/02/10 05:49:27;;;;;;;29.27;19.58;;;3.30;99.90;;;;;;5057447;28;20208;-62
2023/02/10 05:51:54;;;;;;;33.78;20.70;;;3.30;99.90;;;;;;5056807;28;20213;-63
2023/02/10 05:54:22;;;;;;;37.15;21.15;;;3.30;99.90;;;;;;5056434;28;20599;-63
2023/02/10 05:56:50;;;;;;;24.17;17.48;;;3.30;99.90;;;;;;5056565;28;20197;-63
2023/02/10 05:59:17;;;;;;;37.22;21.35;;;3.20;99.90;;;;;;5056477;28;20205;-63
2023/02/10 06:01:44;;;;;;;31.50;18.83;;;3.30;99.90;;;;;;5057085;28;20201;-63
2023/02/10 06:04:11;;;;;;;28.00;18.23;;;3.30;99.90;;;;;;5055169;28;20229;-63
2023/02/10 06:06:38;;;;;;;39.63;18.90;;;3.30;99.90;;;;;;5056665;28;20543;-62
2023/02/10 06:09:05;;;;;;;35.00;18.27;;;3.30;99.90;;;;;;5053780;28;20198;-63
2023/02/10 06:11:34;;;;;;;29.98;18.80;;;3.20;99.90;;;;;;5044198;28;20224;-63
2023/02/10 06:14:01;;;;;;;30.98;18.02;;;3.20;99.90;;;;;;5042215;28;20225;-62
2023/02/10 06:16:27;;;;;;;30.83;17.38;;;3.20;99.90;;;;;;5056251;28;20201;-62
2023/02/10 06:18:54;;;;;;;33.08;19.30;;;3.10;99.90;;;;;;5055369;28;20586;-63
2023/02/10 06:21:22;;;;;;;33.53;19.45;;;3.10;99.90;;;;;;5054099;28;20232;-62
2023/02/10 06:23:49;;;;;;;34.53;21.20;;;3.00;99.90;;;;;;5049169;28;20193;-62
2023/02/10 06:26:16;;;;;;;37.85;20.90;;;3.00;99.90;;;;;;5051012;28;20201;-63
2023/02/10 06:28:44;;;;;;;32.88;18.50;;;2.90;99.90;;;;;;5052347;28;20194;-63
2023/02/10 06:31:11;;;;;;;33.30;19.65;;;2.90;99.90;;;;;;5049171;28;20292;-62
2023/02/10 06:33:38;;;;;;;37.35;19.35;;;2.80;99.90;;;;;;5057242;28;20204;-63
2023/02/10 06:36:07;;;;;;;37.55;20.55;;;2.80;99.90;;;;;;5060872;28;20656;-64
2023/02/10 06:38:34;;;;;;;36.38;20.10;;;2.80;99.90;;;;;;5054858;28;20205;-63
2023/02/10 06:41:01;;;;;;;33.50;22.70;;;2.70;99.90;;;;;;5057624;28;20220;-63
2023/02/10 06:43:28;;;;;;;37.80;22.55;;;2.70;99.90;;;;;;5057143;28;20205;-64
2023/02/10 06:45:56;;;;;;;43.50;21.77;;;2.70;99.90;;;;;;5052280;28;20218;-63
2023/02/10 06:48:23;;;;;;;32.03;20.70;;;2.60;99.90;;;;;;5056647;28;20193;-62
2023/02/10 06:50:50;;;;;;;37.20;21.33;;;2.60;99.90;;;;;;5052832;28;20501;-63
2023/02/10 06:53:17;;;;;;;42.80;22.63;;;2.60;99.90;;;;;;5052285;28;20205;-62
2023/02/10 06:55:43;;;;;;;38.35;21.17;;;2.60;99.90;;;;;;5053290;28;20259;-64
2023/02/10 06:58:12;;;;;;;35.40;20.40;;;2.60;99.90;;;;;;5049463;28;20202;-63
2023/02/10 07:00:39;;;;;;;36.58;22.00;;;2.60;99.90;;;;;;5053887;28;20301;-63
2023/02/10 07:03:07;;;;;;;39.30;22.25;;;2.60;99.90;;;;;;5054727;28;20300;-62
2023/02/10 07:05:35;;;;;;;41.55;22.60;;;2.60;99.90;;;;;;5054299;28;20268;-63
2023/02/10 07:08:03;;;;;;;37.20;22.05;;;2.60;99.90;;;;;;5054778;28;20201;-64
2023/02/10 07:10:30;;;;;;;41.35;20.85;;;2.70;99.90;;;;;;5053846;28;20267;-63
2023/02/10 07:12:57;;;;;;;42.17;20.95;;;2.70;99.90;;;;;;5050453;28;20217;-62
2023/02/10 07:15:23;;;;;;;43.45;24.05;;;2.80;99.90;;;;;;5054038;28;20220;-63
2023/02/10 07:17:51;;;;;;;37.38;21.00;;;2.90;99.90;;;;;;5054776;28;20669;-63
2023/02/10 07:20:19;;;;;;;36.25;21.80;;;2.90;99.90;;;;;;5054355;28;20254;-62
2023/02/10 07:22:46;;;;;;;35.30;20.73;;;3.00;99.90;;;;;;5054726;28;20198;-63
2023/02/10 07:25:14;;;;;;;36.15;19.30;;;3.10;99.90;;;;;;5054130;28;20314;-63
2023/02/10 07:27:41;;;;;;;36.25;20.80;;;3.10;99.90;;;;;;5054598;28;20198;-65
2023/02/10 07:30:09;;;;;;;33.22;19.92;;;3.20;99.90;;;;;;5054882;28;20222;-64
2023/02/10 07:32:36;;;;;;;34.70;20.15;;;3.20;99.90;;;;;;5054748;28;20212;-63
2023/02/10 07:35:02;;;;;;;43.35;22.60;;;3.20;99.90;;;;;;5052473;28;20232;-62
2023/02/10 07:37:31;;;;;;;38.88;21.15;;;3.20;99.90;;;;;;5054891;28;20200;-63
2023/02/10 07:39:58;;;;;;;35.95;19.67;;;3.20;99.90;;;;;;5055222;28;20548;-63
2023/02/10 07:42:25;;;;;;;37.15;20.45;;;3.30;99.90;;;;;;5054812;28;20224;-63
2023/02/10 07:44:52;;;;;;;43.78;20.35;;;3.30;99.90;;;;;;5054650;28;20228;-63
2023/02/10 07:47:18;;;;;;;38.42;21.02;;;3.30;99.90;;;;;;5054398;28;20205;-64
2023/02/10 07:49:45;;;;;;;34.90;22.67;;;3.40;99.90;;;;;;5055663;28;20205;-63
2023/02/10 07:52:12;;;;;;;31.75;20.08;;;3.40;99.90;;;;;;5058216;28;20232;-63
2023/02/10 07:54:40;;;;;;;37.58;21.05;;;3.40;99.90;;;;;;5060772;28;20221;-63
2023/02/10 07:57:07;;;;;;;37.33;20.63;;;3.50;99.90;;;;;;5062652;28;20205;-63
2023/02/10 07:59:34;;;;;;;31.08;20.63;;;3.50;99.90;;;;;;5057691;28;20666;-63
2023/02/10 08:02:01;;;;;;;36.70;21.92;;;3.60;99.90;;;;;;5044306;28;20194;-63
2023/02/10 08:04:30;;;;;;;34.58;20.65;;;3.70;99.90;;;;;;5043066;28;20272;-63
2023/02/10 08:06:57;;;;;;;41.28;23.00;;;3.70;99.90;;;;;;5043389;28;20210;-63
2023/02/10 08:09:24;;;;;;;36.67;21.35;;;3.80;99.90;;;;;;5042411;28;20224;-63
2023/02/10 08:11:52;;;;;;;34.80;19.45;;;3.90;99.90;;;;;;5039869;28;20222;-62
2023/02/10 08:14:19;;;;;;;37.35;21.85;;;3.90;99.90;;;;;;5037389;28;20308;-63
2023/02/10 08:16:46;;;;;;;40.75;21.88;;;4.00;99.90;;;;;;5036065;28;20198;-64
2023/02/10 08:19:13;;;;;;;42.72;21.67;;;4.00;99.90;;;;;;5040593;28;20230;-63
2023/02/10 08:21:41;;;;;;;34.58;21.27;;;4.00;99.90;;;;;;5043138;28;20586;-63
2023/02/10 08:24:08;;;;;;;31.60;20.55;;;4.00;99.90;;;;;;5042819;28;20230;-63
2023/02/10 08:26:35;;;;;;;35.97;21.73;;;3.90;99.90;;;;;;5041251;28;20187;-63
2023/02/10 08:29:03;;;;;;;31.13;20.67;;;4.00;99.90;;;;;;5048560;28;20288;-63
2023/02/10 08:31:30;;;;;;;43.97;22.58;;;4.10;99.90;;;;;;5057671;28;20221;-63
2023/02/10 08:33:57;;;;;;;39.28;21.35;;;4.20;99.90;;;;;;5056807;28;20317;-63
2023/02/10 08:36:23;;;;;;;33.53;20.55;;;4.30;99.90;;;;;;5054442;28;20205;-64
2023/02/10 08:38:51;;;;;;;37.03;21.02;;;4.50;99.90;;;;;;5053882;28;20205;-63
2023/02/10 08:41:19;;;;;;;37.20;22.73;;;4.60;99.90;;;;;;5053666;28;20598;-64
2023/02/10 08:43:46;;;;;;;32.38;21.55;;;4.70;99.90;;;;;;5053791;28;20322;-63
2023/02/10 08:46:14;;;;;;;30.63;20.55;;;4.80;99.90;;;;;;5055882;28;20201;-63
2023/02/10 08:48:41;;;;;;;40.83;21.85;;;4.90;99.90;;;;;;5057516;28;20688;-62
2023/02/10 08:51:10;;;;;;;37.42;21.80;;;4.90;99.90;;;;;;5056268;28;20312;-63
2023/02/10 08:53:37;;;;;;;39.22;22.02;;;4.90;99.90;;;;;;5057264;28;20202;-62
2023/02/10 08:56:06;;;;;;;40.67;21.25;;;4.90;99.90;;;;;;5056298;28;20205;-64
2023/02/10 08:58:33;;;;;;;36.30;22.33;;;5.00;99.90;;;;;;5058724;28;20208;-64
2023/02/10 09:01:01;;;;;;;35.88;20.02;;;5.00;99.90;;;;;;5058574;28;20209;-64
2023/02/10 09:03:29;;;;;;;41.03;23.27;;;5.10;99.90;;;;;;5058038;28;20287;-63
2023/02/10 09:05:56;;;;;;;37.80;21.45;;;5.20;99.90;;;;;;5057195;28;20225;-64
2023/02/10 09:08:22;;;;;;;41.58;21.75;;;5.30;99.90;;;;;;5057039;28;20559;-63
2023/02/10 09:10:50;;;;;;;28.38;19.08;;;5.50;99.90;;;;;;5058135;28;20224;-63
2023/02/10 09:13:16;;;;;;;32.33;20.83;;;5.50;99.90;;;;;;5057897;28;20202;-63
2023/02/10 09:15:43;;;;;;;40.25;21.85;;;5.60;99.90;;;;;;5057257;28;20598;-63
2023/02/10 09:18:11;;;;;;;34.55;21.75;;;5.60;99.90;;;;;;5056965;28;20616;-61
2023/02/10 09:20:39;;;;;;;31.35;19.80;;;5.60;99.90;;;;;;5056980;28;20251;-63
2023/02/10 09:23:06;;;;;;;36.88;21.65;;;5.50;99.90;;;;;;5056883;28;20573;-64
2023/02/10 09:25:33;;;;;;;39.47;20.17;;;5.50;99.90;;;;;;5056420;28;20229;-63
2023/02/10 09:28:00;;;;;;;32.80;20.88;;;5.50;99.90;;;;;;5056709;28;20212;-63
2023/02/10 09:30:27;;;;;;;32.75;19.25;;;5.50;99.90;;;;;;5057607;28;20205;-63
2023/02/10 09:32:55;;;;;;;32.58;20.00;;;5.40;99.90;;;;;;5056647;28;20198;-63
2023/02/10 09:35:22;;;;;;;37.67;22.67;;;5.40;99.90;;;;;;5056358;28;20240;-62
2023/02/10 09:37:50;;;;;;;33.42;19.95;;;5.40;99.90;;;;;;5057083;28;20645;-63
2023/02/10 09:40:20;;;;;;;43.67;22.38;;;5.40;99.90;;;;;;5056223;28;20217;-63
2023/02/10 09:43:02;;;;;;;35.83;21.58;;;5.40;99.90;;;;;;5056717;28;20201;-63
2023/02/10 09:45:36;;;;;;;35.53;21.00;;;5.50;99.90;;;;;;5057727;28;20226;-64
2023/02/10 09:48:18;;;;;;;44.80;21.88;;;5.60;99.90;;;;;;5057893;28;20191;-64
2023/02/10 09:50:55;;;;;;;36.85;21.65;;;5.70;99.90;;;;;;5057150;28;20209;-63
2023/02/10 09:53:27;;;;;;;34.47;20.02;;;5.90;99.90;;;;;;5057270;28;20189;-63
2023/02/10 09:55:57;;;;;;;35.08;19.92;;;6.00;99.90;;;;;;5058049;28;20228;-64
2023/02/10 09:58:32;;;;;;;40.28;22.17;;;6.10;99.90;;;;;;5057168;28;20581;-64
2023/02/10 10:01:05;;;;;;;33.40;20.85;;;6.20;99.90;;;;;;5056312;28;20198;-64
2023/02/10 10:03:42;;;;;;;34.50;18.25;;;6.30;99.90;;;;;;5056386;28;20190;-62
2023/02/10 10:06:18;;;;;;;39.53;21.30;;;6.30;99.90;;;;;;5056399;28;20200;-63
2023/02/10 10:09:02;;;;;;;36.63;22.20;;;6.40;99.90;;;;;;5056525;28;20186;-63
2023/02/10 10:11:36;;;;;;;35.72;20.77;;;6.40;99.90;;;;;;5057024;28;20292;-63
2023/02/10 10:14:04;;;;;;;34.17;20.40;;;6.40;99.90;;;;;;5056378;28;20235;-63
2023/02/10 10:16:46;;;;;;;34.13;19.05;;;6.40;99.90;;;;;;5056241;28;20213;-63
2023/02/10 10:19:23;;;;;;;39.05;21.40;;;6.40;99.90;;;;;;5056600;28;20233;-63
2023/02/10 10:21:57;;;;;;;34.42;20.90;;;6.40;99.90;;;;;;5056231;28;20547;-63
2023/02/10 10:24:42;;;;;;;35.15;21.83;;;6.40;99.90;;;;;;5076877;22;20232;-63
2023/02/10 10:27:21;;;;;;;39.78;21.30;;;6.50;99.90;;;;;;5016293;28;20670;-65
2023/02/10 10:29:53;;;;;;;39.03;22.13;;;6.50;99.90;;;;;;5016065;28;20197;-64
2023/02/10 10:32:32;;;;;;;40.00;20.65;;;6.60;99.90;;;;;;5016681;28;20207;-65
2023/02/10 10:35:00;;;;;;;37.35;19.70;;;6.60;99.90;;;;;;5016371;28;20233;-65
2023/02/10 10:37:28;;;;;;;43.75;19.55;;;6.60;99.90;;;;;;5015883;28;20207;-62
2023/02/10 10:39:59;;;;;;;31.73;19.80;;;6.50;99.90;;;;;;5016657;28;20203;-63
2023/02/10 10:42:35;;;;;;;32.75;20.50;;;6.50;99.90;;;;;;5014965;28;20560;-64
2023/02/10 10:45:08;;;;;;;34.78;19.02;;;6.40;99.90;;;;;;5015005;28;20223;-64
2023/02/10 10:47:42;;;;;;;38.40;20.83;;;6.40;99.90;;;;;;5015255;28;20187;-65
2023/02/10 10:50:15;;;;;;;37.88;21.20;;;6.40;99.90;;;;;;5015059;28;20577;-64
2023/02/10 10:52:43;;;;;;;40.50;21.67;;;6.40;99.90;;;;;;5015171;28;20217;-64
2023/02/10 10:55:16;;;;;;;37.97;21.80;;;6.60;99.90;;;;;;5014825;28;20274;-64
2023/02/10 10:57:43;;;;;;;34.25;20.30;;;6.60;99.90;;;;;;5014539;28;20193;-63
2023/02/10 11:00:20;;;;;;;31.98;19.23;;;6.70;99.90;;;;;;5015452;28;20199;-65
2023/02/10 11:02:59;;;;;;;35.88;21.85;;;6.80;99.90;;;;;;5015729;28;20210;-65
2023/02/10 11:05:30;;;;;;;37.10;20.88;;;6.80;99.90;;;;;;5014828;28;20245;-64
2023/02/10 11:07:57;;;;;;;34.35;20.95;;;6.80;99.90;;;;;;5015799;28;20542;-64
2023/02/10 11:10:31;;;;;;;37.22;19.52;;;6.80;99.90;;;;;;5015570;28;20261;-63
2023/02/10 11:12:59;;;;;;;33.67;20.25;;;6.80;99.90;;;;;;5015600;28;20210;-64
2023/02/10 11:15:35;;;;;;;37.78;19.75;;;6.80;99.90;;;;;;5015366;28;20293;-64
2023/02/10 11:18:03;;;;;;;34.45;21.02;;;6.80;99.90;;;;;;5016881;28;20265;-64
2023/02/10 11:20:32;;;;;;;37.53;20.90;;;6.80;99.90;;;;;;5015181;28;20286;-65
2023/02/10 11:23:00;;;;;;;33.95;20.15;;;6.80;99.90;;;;;;5016483;28;20679;-64
2023/02/10 11:25:30;;;;;;;36.20;21.20;;;6.80;99.90;;;;;;5015312;28;20289;-64
2023/02/10 11:27:59;;;;;;;43.03;22.35;;;6.80;99.90;;;;;;5016700;28;20568;-65
2023/02/10 11:30:27;;;;;;;43.25;22.58;;;6.80;99.90;;;;;;5015605;28;20207;-64
2023/02/10 11:32:54;;;;;;;38.88;20.58;;;6.90;99.90;;;;;;5015294;28;20234;-63
2023/02/10 11:35:22;;;;;;;37.53;19.23;;;6.90;99.90;;;;;;5015640;28;20577;-65
2023/02/10 11:37:55;;;;;;;41.05;21.83;;;6.90;99.90;;;;;;5015988;28;20202;-63
2023/02/10 11:40:25;;;;;;;40.10;22.65;;;6.90;99.90;;;;;;5017271;28;20230;-64
2023/02/10 11:42:55;;;;;;;40.40;22.30;;;6.90;99.90;;;;;;5018135;28;20285;-65
2023/02/10 11:45:25;;;;;;;40.58;21.25;;;7.00;99.90;;;;;;5017682;28;20317;-63
2023/02/10 11:48:02;;;;;;;41.90;22.30;;;7.10;99.90;;;;;;5017790;28;20666;-66
2023/02/10 11:50:31;;;;;;;34.80;20.45;;;7.10;99.90;;;;;;5017478;28;20642;-65
2023/02/10 11:52:58;;;;;;;42.63;23.15;;;7.20;99.90;;;;;;5017169;28;20225;-65
2023/02/10 11:55:33;;;;;;;41.10;22.75;;;7.20;99.90;;;;;;5017984;28;20235;-64
2023/02/10 12:01:10;;;;;;;42.85;22.63;;;7.20;99.50;;;;;;5017317;28;20563;-64
2023/02/10 12:03:51;;;;;;;39.75;21.55;;;7.20;99.40;;;;;;5017152;28;20203;-64
2023/02/10 12:06:24;;;;;;;39.58;22.80;;;7.10;99.30;;;;;;5016496;28;20230;-65
2023/02/10 12:08:59;;;;;;;42.53;21.67;;;7.10;99.30;;;;;;5016003;28;20710;-64
2023/02/10 12:11:34;;;;;;;38.42;21.73;;;7.10;99.30;;;;;;5016968;28;20281;-65
2023/02/10 12:14:14;;;;;;;42.92;25.20;;;7.20;99.20;;;;;;5015421;28;20193;-64
2023/02/10 12:16:51;;;;;;;38.72;20.48;;;7.20;99.10;;;;;;5015487;28;20662;-63
2023/02/10 12:19:28;;;;;;;38.35;22.55;;;7.20;98.90;;;;;;5018223;28;20642;-65
2023/02/10 12:22:06;;;;;;;46.67;23.08;;;7.20;98.50;;;;;;5016163;28;20222;-64
2023/02/10 12:24:50;;;;;;;42.85;23.05;;;7.20;98.60;;;;;;5015528;28;20242;-63
2023/02/10 12:27:22;;;;;;;42.30;22.50;;;7.20;98.50;;;;;;5015329;28;20218;-66
2023/02/10 12:30:00;;;;;;;50.60;30.42;;;7.20;98.40;;;;;;5016667;28;20206;-65
2023/02/10 12:32:36;;;;;;;37.45;21.88;;;7.30;98.70;;;;;;5019511;28;20210;-64
2023/02/10 12:35:23;;;;;;;30.55;20.13;;;7.30;98.30;;;;;;5023517;28;20244;-65
2023/02/10 12:38:01;;;;;;;34.63;20.20;;;7.40;97.90;;;;;;5022466;28;20265;-64
2023/02/10 12:40:45;;;;;;;38.00;21.30;;;7.40;97.70;;;;;;5020632;28;20247;-62
2023/02/10 12:43:27;;;;;;;32.17;20.92;;;7.40;97.40;;;;;;5018635;28;20233;-66
2023/02/10 12:46:05;;;;;;;34.60;21.58;;;7.30;97.10;;;;;;5019352;28;20234;-63
2023/02/10 12:48:41;;;;;;;34.25;21.42;;;7.30;97.40;;;;;;5020042;28;20202;-64
2023/02/10 12:51:31;;;;;;;33.22;20.05;;;7.30;97.40;;;;;;5018985;28;20225;-63
2023/02/10 12:54:04;;;;;;;35.30;21.25;;;7.40;97.30;;;;;;5018556;28;20209;-63
2023/02/10 12:56:37;;;;;;;35.78;20.27;;;7.60;96.90;;;;;;5019334;28;20223;-64
2023/02/10 12:59:12;;;;;;;36.33;21.20;;;7.60;96.60;;;;;;5018899;28;20203;-65